sensor_id;sensor_type;location;lat;lon;timestamp;temperature;humidity
46976;DHT22;32724;51.094;6.996;2023-10-31T00:01:20;11.50;99.90
46976;DHT22;32724;51.094;6.996;2023-10-31T00:03:46;11.50;99.90
46976;DHT22;32724;51.094;6.996;2023-10-31T00:06:11;11.30;99.90
46976;DHT22;32724;51.094;6.996;2023-10-31T00:08:37;11.10;99.90
46976;DHT22;32724;51.094;6.996;2023-10-31T00:11:02;11.00;99.90
46976;DHT22;32724;51.094;6.996;2023-10-31T00:13:28;11.10;99.90
46976;DHT22;32724;51.094;6.996;2023-10-31T00:15:53;11.10;99.90
46976;DHT22;32724;51.094;6.996;2023-10-31T00:18:19;11.30;99.90
46976;DHT22;32724;51.094;6.996;2023-10-31T00:20:46;11.10;99.90
46976;DHT22;32724;51.094;6.996;2023-10-31T00:23:12;11.00;99.90
46976;DHT22;32724;51.094;6.996;2023-10-31T00:25:37;11.10;99.90
46976;DHT22;32724;51.094;6.996;2023-10-31T00:28:03;11.10;99.90
46976;DHT22;32724;51.094;6.996;2023-10-31T00:30:29;11.20;99.90
46976;DHT22;32724;51.094;6.996;2023-10-31T00:32:54;11.20;99.90
46976;DHT22;32724;51.094;6.996;2023-10-31T00:35:20;11.20;99.90
46976;DHT22;32724;51.094;6.996;2023-10-31T00:37:45;11.20;99.90
46976;DHT22;32724;51.094;6.996;2023-10-31T00:40:11;11.20;99.90
46976;DHT22;32724;51.094;6.996;2023-10-31T00:42:39;11.20;99.90
46976;DHT22;32724;51.094;6.996;2023-10-31T00:45:07;11.20;99.90
46976;DHT22;32724;51.094;6.996;2023-10-31T00:47:33;11.20;99.90
46976;DHT22;32724;51.094;6.996;2023-10-31T00:49:59;11.20;99.90
46976;DHT22;32724;51.094;6.996;2023-10-31T00:52:24;11.10;99.90
46976;DHT22;32724;51.094;6.996;2023-10-31T00:54:50;11.20;99.90
46976;DHT22;32724;51.094;6.996;2023-10-31T00:57:15;11.10;99.90
46976;DHT22;32724;51.094;6.996;2023-10-31T00:59:41;11.20;99.90
46976;DHT22;32724;51.094;6.996;2023-10-31T01:02:06;11.10;99.90
46976;DHT22;32724;51.094;6.996;2023-10-31T01:04:32;11.10;99.90
46976;DHT22;32724;51.094;6.996;2023-10-31T01:06:58;11.10;99.90
46976;DHT22;32724;51.094;6.996;2023-10-31T01:09:23;11.10;99.90
46976;DHT22;32724;51.094;6.996;2023-10-31T01:11:49;10.50;99.90
46976;DHT22;32724;51.094;6.996;2023-10-31T01:14:14;10.50;99.90
46976;DHT22;32724;51.094;6.996;2023-10-31T01:16:40;10.50;99.90
46976;DHT22;32724;51.094;6.996;2023-10-31T01:19:06;10.60;99.90
46976;DHT22;32724;51.094;6.996;2023-10-31T01:21:33;10.70;99.90
46976;DHT22;32724;51.094;6.996;2023-10-31T01:23:59;10.70;99.90
46976;DHT22;32724;51.094;6.996;2023-10-31T01:26:25;10.70;99.90
46976;DHT22;32724;51.094;6.996;2023-10-31T01:28:51;10.80;99.90
46976;DHT22;32724;51.094;6.996;2023-10-31T01:31:17;10.80;99.90
46976;DHT22;32724;51.094;6.996;2023-10-31T01:33:42;10.80;99.90
46976;DHT22;32724;51.094;6.996;2023-10-31T01:36:08;10.80;99.90
46976;DHT22;32724;51.094;6.996;2023-10-31T01:38:36;10.90;99.90
46976;DHT22;32724;51.094;6.996;2023-10-31T01:41:01;10.90;99.90
46976;DHT22;32724;51.094;6.996;2023-10-31T01:43:35;10.90;99.90
46976;DHT22;32724;51.094;6.996;2023-10-31T01:46:01;10.90;99.90
46976;DHT22;32724;51.094;6.996;2023-10-31T01:48:29;10.90;99.90
46976;DHT22;32724;51.094;6.996;2023-10-31T01:50:56;10.90;99.90
46976;DHT22;32724;51.094;6.996;2023-10-31T01:53:23;10.90;99.90
46976;DHT22;32724;51.094;6.996;2023-10-31T01:55:50;10.80;99.90
46976;DHT22;32724;51.094;6.996;2023-10-31T01:58:16;10.90;99.90
46976;DHT22;32724;51.094;6.996;2023-10-31T02:00:43;10.80;99.90
46976;DHT22;32724;51.094;6.996;2023-10-31T02:03:08;10.90;99.90
46976;DHT22;32724;51.094;6.996;2023-10-31T02:05:34;10.90;99.90
46976;DHT22;32724;51.094;6.996;2023-10-31T02:08:01;10.70;99.90
46976;DHT22;32724;51.094;6.996;2023-10-31T02:10:27;10.40;99.90
46976;DHT22;32724;51.094;6.996;2023-10-31T02:12:52;10.40;99.90
46976;DHT22;32724;51.094;6.996;2023-10-31T02:15:18;10.50;99.90
46976;DHT22;32724;51.094;6.996;2023-10-31T02:17:43;10.50;99.90
46976;DHT22;32724;51.094;6.996;2023-10-31T02:20:09;10.60;99.90
46976;DHT22;32724;51.094;6.996;2023-10-31T02:22:35;10.50;99.90
46976;DHT22;32724;51.094;6.996;2023-10-31T02:25:00;10.40;99.90
46976;DHT22;32724;51.094;6.996;2023-10-31T02:27:26;10.50;99.90
46976;DHT22;32724;51.094;6.996;2023-10-31T02:29:52;10.50;99.90
46976;DHT22;32724;51.094;6.996;2023-10-31T02:32:17;10.60;99.90
46976;DHT22;32724;51.094;6.996;2023-10-31T02:34:45;10.70;99.90
46976;DHT22;32724;51.094;6.996;2023-10-31T02:37:11;10.70;99.90
46976;DHT22;32724;51.094;6.996;2023-10-31T02:39:37;10.70;99.90
46976;DHT22;32724;51.094;6.996;2023-10-31T02:42:03;10.70;99.90
46976;DHT22;32724;51.094;6.996;2023-10-31T02:44:28;10.70;99.90
46976;DHT22;32724;51.094;6.996;2023-10-31T02:46:54;10.70;99.90
46976;DHT22;32724;51.094;6.996;2023-10-31T02:49:20;10.70;99.90
46976;DHT22;32724;51.094;6.996;2023-10-31T02:51:45;10.80;99.90
46976;DHT22;32724;51.094;6.996;2023-10-31T02:54:11;10.80;99.90
46976;DHT22;32724;51.094;6.996;2023-10-31T02:56:36;10.80;99.90
46976;DHT22;32724;51.094;6.996;2023-10-31T02:59:02;10.80;99.90
46976;DHT22;32724;51.094;6.996;2023-10-31T03:01:28;10.80;99.90
46976;DHT22;32724;51.094;6.996;2023-10-31T03:03:54;10.80;99.90
46976;DHT22;32724;51.094;6.996;2023-10-31T03:06:21;10.50;99.90
46976;DHT22;32724;51.094;6.996;2023-10-31T03:08:46;10.40;99.90
46976;DHT22;32724;51.094;6.996;2023-10-31T03:11:21;10.40;99.90
46976;DHT22;32724;51.094;6.996;2023-10-31T03:13:48;10.40;99.90
46976;DHT22;32724;51.094;6.996;2023-10-31T03:16:13;10.30;99.90
46976;DHT22;32724;51.094;6.996;2023-10-31T03:18:39;10.20;99.90
46976;DHT22;32724;51.094;6.996;2023-10-31T03:21:05;10.10;99.90
46976;DHT22;32724;51.094;6.996;2023-10-31T03:23:30;10.20;99.90
46976;DHT22;32724;51.094;6.996;2023-10-31T03:25:56;10.30;99.90
46976;DHT22;32724;51.094;6.996;2023-10-31T03:28:21;10.40;99.90
46976;DHT22;32724;51.094;6.996;2023-10-31T03:30:49;10.40;99.90
46976;DHT22;32724;51.094;6.996;2023-10-31T03:33:16;10.50;99.90
46976;DHT22;32724;51.094;6.996;2023-10-31T03:35:42;10.50;99.90
46976;DHT22;32724;51.094;6.996;2023-10-31T03:38:08;10.50;99.90
46976;DHT22;32724;51.094;6.996;2023-10-31T03:40:33;10.60;99.90
46976;DHT22;32724;51.094;6.996;2023-10-31T03:42:59;10.60;99.90
46976;DHT22;32724;51.094;6.996;2023-10-31T03:45:24;10.60;99.90
46976;DHT22;32724;51.094;6.996;2023-10-31T03:47:50;10.60;99.90
46976;DHT22;32724;51.094;6.996;2023-10-31T03:50:15;10.60;99.90
46976;DHT22;32724;51.094;6.996;2023-10-31T03:52:41;10.60;99.90
46976;DHT22;32724;51.094;6.996;2023-10-31T03:55:07;10.60;99.90
46976;DHT22;32724;51.094;6.996;2023-10-31T03:57:32;10.60;99.90
46976;DHT22;32724;51.094;6.996;2023-10-31T03:59:58;10.20;99.90
46976;DHT22;32724;51.094;6.996;2023-10-31T04:02:23;10.20;99.90
46976;DHT22;32724;51.094;6.996;2023-10-31T04:04:49;10.10;99.90
46976;DHT22;32724;51.094;6.996;2023-10-31T04:07:14;10.00;99.90
46976;DHT22;32724;51.094;6.996;2023-10-31T04:09:40;10.10;99.90
46976;DHT22;32724;51.094;6.996;2023-10-31T04:12:06;10.10;99.90
46976;DHT22;32724;51.094;6.996;2023-10-31T04:14:31;10.10;99.90
46976;DHT22;32724;51.094;6.996;2023-10-31T04:16:57;10.10;99.90
46976;DHT22;32724;51.094;6.996;2023-10-31T04:19:22;10.10;99.90
46976;DHT22;32724;51.094;6.996;2023-10-31T04:21:48;9.90;99.90
46976;DHT22;32724;51.094;6.996;2023-10-31T04:24:14;9.90;99.90
46976;DHT22;32724;51.094;6.996;2023-10-31T04:26:40;9.80;99.90
46976;DHT22;32724;51.094;6.996;2023-10-31T04:29:06;9.80;99.90
46976;DHT22;32724;51.094;6.996;2023-10-31T04:31:32;9.70;99.90
46976;DHT22;32724;51.094;6.996;2023-10-31T04:33:57;9.50;99.90
46976;DHT22;32724;51.094;6.996;2023-10-31T04:36:23;9.80;99.90
46976;DHT22;32724;51.094;6.996;2023-10-31T04:38:48;10.10;99.90
46976;DHT22;32724;51.094;6.996;2023-10-31T04:41:14;10.20;99.90
46976;DHT22;32724;51.094;6.996;2023-10-31T04:43:39;10.30;99.90
46976;DHT22;32724;51.094;6.996;2023-10-31T04:46:07;10.40;99.90
46976;DHT22;32724;51.094;6.996;2023-10-31T04:48:32;10.50;99.90
46976;DHT22;32724;51.094;6.996;2023-10-31T04:50:58;10.50;99.90
46976;DHT22;32724;51.094;6.996;2023-10-31T04:53:24;10.60;99.90
46976;DHT22;32724;51.094;6.996;2023-10-31T04:55:50;10.60;99.90
46976;DHT22;32724;51.094;6.996;2023-10-31T04:58:15;10.60;99.90
46976;DHT22;32724;51.094;6.996;2023-10-31T05:00:41;10.70;99.90
46976;DHT22;32724;51.094;6.996;2023-10-31T05:03:07;10.70;99.90
46976;DHT22;32724;51.094;6.996;2023-10-31T05:05:32;10.80;99.90
46976;DHT22;32724;51.094;6.996;2023-10-31T05:07:58;10.80;99.90
46976;DHT22;32724;51.094;6.996;2023-10-31T05:10:24;10.90;99.90
46976;DHT22;32724;51.094;6.996;2023-10-31T05:12:49;10.90;99.90
46976;DHT22;32724;51.094;6.996;2023-10-31T05:15:16;10.80;99.90
46976;DHT22;32724;51.094;6.996;2023-10-31T05:17:41;10.70;99.90
46976;DHT22;32724;51.094;6.996;2023-10-31T05:20:07;10.70;99.90
46976;DHT22;32724;51.094;6.996;2023-10-31T05:22:34;10.70;99.90
46976;DHT22;32724;51.094;6.996;2023-10-31T05:25:00;10.60;99.90
46976;DHT22;32724;51.094;6.996;2023-10-31T05:27:25;10.60;99.90
46976;DHT22;32724;51.094;6.996;2023-10-31T05:29:51;10.60;99.90
46976;DHT22;32724;51.094;6.996;2023-10-31T05:32:16;10.70;99.90
46976;DHT22;32724;51.094;6.996;2023-10-31T05:34:42;10.80;99.90
46976;DHT22;32724;51.094;6.996;2023-10-31T05:37:07;10.80;99.90
46976;DHT22;32724;51.094;6.996;2023-10-31T05:39:33;10.90;99.90
46976;DHT22;32724;51.094;6.996;2023-10-31T05:41:58;10.90;99.90
46976;DHT22;32724;51.094;6.996;2023-10-31T05:44:24;10.90;99.90
46976;DHT22;32724;51.094;6.996;2023-10-31T05:46:49;10.90;99.90
46976;DHT22;32724;51.094;6.996;2023-10-31T05:49:15;10.90;99.90
46976;DHT22;32724;51.094;6.996;2023-10-31T05:51:41;11.00;99.90
46976;DHT22;32724;51.094;6.996;2023-10-31T05:54:07;11.00;99.90
46976;DHT22;32724;51.094;6.996;2023-10-31T05:56:33;11.00;99.90
46976;DHT22;32724;51.094;6.996;2023-10-31T05:58:59;11.00;99.90
46976;DHT22;32724;51.094;6.996;2023-10-31T06:01:24;11.00;99.90
46976;DHT22;32724;51.094;6.996;2023-10-31T06:03:50;11.00;99.90
46976;DHT22;32724;51.094;6.996;2023-10-31T06:06:15;11.00;99.90
46976;DHT22;32724;51.094;6.996;2023-10-31T06:08:41;10.80;99.90
46976;DHT22;32724;51.094;6.996;2023-10-31T06:11:07;10.60;99.90
46976;DHT22;32724;51.094;6.996;2023-10-31T06:13:33;10.70;99.90
46976;DHT22;32724;51.094;6.996;2023-10-31T06:16:00;10.60;99.90
46976;DHT22;32724;51.094;6.996;2023-10-31T06:18:25;10.60;99.90
46976;DHT22;32724;51.094;6.996;2023-10-31T06:20:52;10.60;99.90
46976;DHT22;32724;51.094;6.996;2023-10-31T06:23:18;10.50;99.90
46976;DHT22;32724;51.094;6.996;2023-10-31T06:25:43;10.40;99.90
46976;DHT22;32724;51.094;6.996;2023-10-31T06:28:09;10.50;99.90
46976;DHT22;32724;51.094;6.996;2023-10-31T06:30:34;10.60;99.90
46976;DHT22;32724;51.094;6.996;2023-10-31T06:33:00;10.70;99.90
46976;DHT22;32724;51.094;6.996;2023-10-31T06:35:26;10.80;99.90
46976;DHT22;32724;51.094;6.996;2023-10-31T06:37:55;10.80;99.90
46976;DHT22;32724;51.094;6.996;2023-10-31T06:40:23;10.80;99.90
46976;DHT22;32724;51.094;6.996;2023-10-31T06:42:48;10.90;99.90
46976;DHT22;32724;51.094;6.996;2023-10-31T06:45:14;10.90;99.90
46976;DHT22;32724;51.094;6.996;2023-10-31T06:47:39;10.90;99.90
46976;DHT22;32724;51.094;6.996;2023-10-31T06:50:07;10.90;99.90
46976;DHT22;32724;51.094;6.996;2023-10-31T06:52:32;10.90;99.90
46976;DHT22;32724;51.094;6.996;2023-10-31T06:54:58;10.90;99.90
46976;DHT22;32724;51.094;6.996;2023-10-31T06:57:23;10.90;99.90
46976;DHT22;32724;51.094;6.996;2023-10-31T06:59:49;10.90;99.90
46976;DHT22;32724;51.094;6.996;2023-10-31T07:02:14;10.90;99.90
46976;DHT22;32724;51.094;6.996;2023-10-31T07:04:40;10.90;99.90
46976;DHT22;32724;51.094;6.996;2023-10-31T07:07:06;10.70;99.90
46976;DHT22;32724;51.094;6.996;2023-10-31T07:09:31;10.60;99.90
46976;DHT22;32724;51.094;6.996;2023-10-31T07:11:57;10.60;99.90
46976;DHT22;32724;51.094;6.996;2023-10-31T07:14:22;10.60;99.90
46976;DHT22;32724;51.094;6.996;2023-10-31T07:16:48;10.60;99.90
46976;DHT22;32724;51.094;6.996;2023-10-31T07:19:14;10.50;99.90
46976;DHT22;32724;51.094;6.996;2023-10-31T07:21:40;10.50;99.90
46976;DHT22;32724;51.094;6.996;2023-10-31T07:24:05;10.50;99.90
46976;DHT22;32724;51.094;6.996;2023-10-31T07:26:36;10.50;99.90
46976;DHT22;32724;51.094;6.996;2023-10-31T07:29:02;10.50;99.90
46976;DHT22;32724;51.094;6.996;2023-10-31T07:31:28;10.60;99.90
46976;DHT22;32724;51.094;6.996;2023-10-31T07:33:54;10.60;99.90
46976;DHT22;32724;51.094;6.996;2023-10-31T07:36:19;10.60;99.90
46976;DHT22;32724;51.094;6.996;2023-10-31T07:38:45;10.60;99.90
46976;DHT22;32724;51.094;6.996;2023-10-31T07:41:10;10.70;99.90
46976;DHT22;32724;51.094;6.996;2023-10-31T07:43:36;10.70;99.90
46976;DHT22;32724;51.094;6.996;2023-10-31T07:46:01;10.70;99.90
46976;DHT22;32724;51.094;6.996;2023-10-31T07:48:27;10.80;99.90
46976;DHT22;32724;51.094;6.996;2023-10-31T07:50:52;10.80;99.90
46976;DHT22;32724;51.094;6.996;2023-10-31T07:53:18;10.80;99.90
46976;DHT22;32724;51.094;6.996;2023-10-31T07:55:43;10.90;99.90
46976;DHT22;32724;51.094;6.996;2023-10-31T07:58:09;10.90;99.90
46976;DHT22;32724;51.094;6.996;2023-10-31T08:00:35;10.90;99.90
46976;DHT22;32724;51.094;6.996;2023-10-31T08:03:01;10.60;99.90
46976;DHT22;32724;51.094;6.996;2023-10-31T08:05:27;10.70;99.90
46976;DHT22;32724;51.094;6.996;2023-10-31T08:07:53;10.70;99.90
46976;DHT22;32724;51.094;6.996;2023-10-31T08:10:18;10.70;99.90
46976;DHT22;32724;51.094;6.996;2023-10-31T08:12:44;10.70;99.90
46976;DHT22;32724;51.094;6.996;2023-10-31T08:15:10;10.70;99.90
46976;DHT22;32724;51.094;6.996;2023-10-31T08:17:35;10.80;99.90
46976;DHT22;32724;51.094;6.996;2023-10-31T08:20:02;11.10;99.90
46976;DHT22;32724;51.094;6.996;2023-10-31T08:22:29;10.90;99.90
46976;DHT22;32724;51.094;6.996;2023-10-31T08:24:54;11.00;99.90
46976;DHT22;32724;51.094;6.996;2023-10-31T08:27:20;11.20;99.90
46976;DHT22;32724;51.094;6.996;2023-10-31T08:29:45;11.40;99.90
46976;DHT22;32724;51.094;6.996;2023-10-31T08:32:11;11.50;99.90
46976;DHT22;32724;51.094;6.996;2023-10-31T08:34:36;11.60;99.90
46976;DHT22;32724;51.094;6.996;2023-10-31T08:37:02;11.80;99.90
46976;DHT22;32724;51.094;6.996;2023-10-31T08:39:28;11.90;99.90
46976;DHT22;32724;51.094;6.996;2023-10-31T08:41:55;11.90;99.90
46976;DHT22;32724;51.094;6.996;2023-10-31T08:44:21;11.90;99.90
46976;DHT22;32724;51.094;6.996;2023-10-31T08:46:47;11.80;99.90
46976;DHT22;32724;51.094;6.996;2023-10-31T08:49:13;11.90;99.90
46976;DHT22;32724;51.094;6.996;2023-10-31T08:51:39;11.90;99.90
46976;DHT22;32724;51.094;6.996;2023-10-31T08:54:05;12.00;99.90
46976;DHT22;32724;51.094;6.996;2023-10-31T08:56:31;12.10;99.90
46976;DHT22;32724;51.094;6.996;2023-10-31T08:58:56;12.10;99.90
46976;DHT22;32724;51.094;6.996;2023-10-31T09:01:22;12.20;99.90
46976;DHT22;32724;51.094;6.996;2023-10-31T09:03:47;12.20;99.90
46976;DHT22;32724;51.094;6.996;2023-10-31T09:06:13;12.20;99.90
46976;DHT22;32724;51.094;6.996;2023-10-31T09:08:39;11.60;99.90
46976;DHT22;32724;51.094;6.996;2023-10-31T09:11:05;11.50;99.90
46976;DHT22;32724;51.094;6.996;2023-10-31T09:13:31;11.50;99.90
46976;DHT22;32724;51.094;6.996;2023-10-31T09:16:00;11.30;99.90
46976;DHT22;32724;51.094;6.996;2023-10-31T09:18:26;11.50;99.90
46976;DHT22;32724;51.094;6.996;2023-10-31T09:20:52;11.60;99.90
46976;DHT22;32724;51.094;6.996;2023-10-31T09:23:18;11.70;99.90
46976;DHT22;32724;51.094;6.996;2023-10-31T09:25:44;11.80;99.90
46976;DHT22;32724;51.094;6.996;2023-10-31T09:28:10;11.90;99.90
46976;DHT22;32724;51.094;6.996;2023-10-31T09:30:36;12.00;99.90
46976;DHT22;32724;51.094;6.996;2023-10-31T09:33:01;12.10;99.90
46976;DHT22;32724;51.094;6.996;2023-10-31T09:35:27;12.10;99.90
46976;DHT22;32724;51.094;6.996;2023-10-31T09:37:53;12.10;99.90
46976;DHT22;32724;51.094;6.996;2023-10-31T09:40:19;12.20;99.90
46976;DHT22;32724;51.094;6.996;2023-10-31T09:42:45;12.50;99.90
46976;DHT22;32724;51.094;6.996;2023-10-31T09:45:12;12.50;99.90
46976;DHT22;32724;51.094;6.996;2023-10-31T09:47:38;12.60;99.90
46976;DHT22;32724;51.094;6.996;2023-10-31T09:50:04;12.70;99.90
46976;DHT22;32724;51.094;6.996;2023-10-31T09:52:30;12.70;99.90
46976;DHT22;32724;51.094;6.996;2023-10-31T09:54:56;12.80;99.90
46976;DHT22;32724;51.094;6.996;2023-10-31T09:57:22;12.80;99.90
46976;DHT22;32724;51.094;6.996;2023-10-31T09:59:47;12.90;99.90
46976;DHT22;32724;51.094;6.996;2023-10-31T10:02:13;12.90;99.90
46976;DHT22;32724;51.094;6.996;2023-10-31T10:04:39;12.90;99.90
46976;DHT22;32724;51.094;6.996;2023-10-31T10:07:05;12.90;99.90
46976;DHT22;32724;51.094;6.996;2023-10-31T10:09:31;13.00;99.90
46976;DHT22;32724;51.094;6.996;2023-10-31T10:12:00;13.10;99.90
46976;DHT22;32724;51.094;6.996;2023-10-31T10:14:26;13.00;99.90
46976;DHT22;32724;51.094;6.996;2023-10-31T10:16:54;13.00;99.90
46976;DHT22;32724;51.094;6.996;2023-10-31T10:19:21;13.10;99.90
46976;DHT22;32724;51.094;6.996;2023-10-31T10:21:52;13.20;99.90
46976;DHT22;32724;51.094;6.996;2023-10-31T10:24:18;13.20;99.90
46976;DHT22;32724;51.094;6.996;2023-10-31T10:26:45;13.30;99.90
46976;DHT22;32724;51.094;6.996;2023-10-31T10:29:10;13.40;99.90
46976;DHT22;32724;51.094;6.996;2023-10-31T10:31:36;13.50;99.90
46976;DHT22;32724;51.094;6.996;2023-10-31T10:34:01;13.60;99.90
46976;DHT22;32724;51.094;6.996;2023-10-31T10:36:27;13.50;99.90
46976;DHT22;32724;51.094;6.996;2023-10-31T10:38:56;13.50;99.90
46976;DHT22;32724;51.094;6.996;2023-10-31T10:41:26;13.40;99.90
46976;DHT22;32724;51.094;6.996;2023-10-31T10:44:04;13.40;99.90
46976;DHT22;32724;51.094;6.996;2023-10-31T10:46:35;13.40;99.90
46976;DHT22;32724;51.094;6.996;2023-10-31T10:49:05;12.80;99.90
46976;DHT22;32724;51.094;6.996;2023-10-31T10:51:53;12.50;99.90
46976;DHT22;32724;51.094;6.996;2023-10-31T10:54:31;12.40;99.90
46976;DHT22;32724;51.094;6.996;2023-10-31T10:59:42;12.40;99.90
46976;DHT22;32724;51.094;6.996;2023-10-31T11:02:09;12.60;99.90
46976;DHT22;32724;51.094;6.996;2023-10-31T11:04:36;12.80;99.90
46976;DHT22;32724;51.094;6.996;2023-10-31T11:07:02;13.10;99.90
46976;DHT22;32724;51.094;6.996;2023-10-31T11:09:32;13.40;99.90
46976;DHT22;32724;51.094;6.996;2023-10-31T11:11:58;13.60;99.90
46976;DHT22;32724;51.094;6.996;2023-10-31T11:14:25;13.70;99.90
46976;DHT22;32724;51.094;6.996;2023-10-31T11:16:54;13.70;99.90
46976;DHT22;32724;51.094;6.996;2023-10-31T11:19:21;13.60;99.90
46976;DHT22;32724;51.094;6.996;2023-10-31T11:22:01;13.60;99.90
46976;DHT22;32724;51.094;6.996;2023-10-31T11:24:28;13.60;99.90
46976;DHT22;32724;51.094;6.996;2023-10-31T11:26:59;13.50;99.90
46976;DHT22;32724;51.094;6.996;2023-10-31T11:29:25;13.60;99.90
46976;DHT22;32724;51.094;6.996;2023-10-31T11:31:53;13.50;99.90
46976;DHT22;32724;51.094;6.996;2023-10-31T11:34:19;13.50;99.90
46976;DHT22;32724;51.094;6.996;2023-10-31T11:36:46;13.40;99.90
46976;DHT22;32724;51.094;6.996;2023-10-31T11:39:18;13.30;99.90
46976;DHT22;32724;51.094;6.996;2023-10-31T11:41:49;13.20;99.90
46976;DHT22;32724;51.094;6.996;2023-10-31T11:44:17;13.20;99.90
46976;DHT22;32724;51.094;6.996;2023-10-31T11:46:43;13.20;99.90
46976;DHT22;32724;51.094;6.996;2023-10-31T11:49:13;13.20;99.90
46976;DHT22;32724;51.094;6.996;2023-10-31T11:51:38;13.20;99.90
46976;DHT22;32724;51.094;6.996;2023-10-31T11:54:04;13.20;99.90
46976;DHT22;32724;51.094;6.996;2023-10-31T11:56:33;13.30;99.90
46976;DHT22;32724;51.094;6.996;2023-10-31T11:59:03;13.20;99.90
46976;DHT22;32724;51.094;6.996;2023-10-31T12:01:29;13.20;99.90
46976;DHT22;32724;51.094;6.996;2023-10-31T12:03:55;13.20;99.90
46976;DHT22;32724;51.094;6.996;2023-10-31T12:06:21;13.40;99.90
46976;DHT22;32724;51.094;6.996;2023-10-31T12:08:47;13.40;99.90
46976;DHT22;32724;51.094;6.996;2023-10-31T12:11:21;13.40;99.90
46976;DHT22;32724;51.094;6.996;2023-10-31T12:14:01;13.50;99.90
46976;DHT22;32724;51.094;6.996;2023-10-31T12:16:29;13.50;99.90
46976;DHT22;32724;51.094;6.996;2023-10-31T12:18:57;13.50;99.90
46976;DHT22;32724;51.094;6.996;2023-10-31T12:21:45;13.50;99.90
46976;DHT22;32724;51.094;6.996;2023-10-31T12:24:16;13.50;99.90
46976;DHT22;32724;51.094;6.996;2023-10-31T12:26:42;13.60;99.90
46976;DHT22;32724;51.094;6.996;2023-10-31T12:29:16;13.60;99.90
46976;DHT22;32724;51.094;6.996;2023-10-31T12:31:44;13.70;99.90
46976;DHT22;32724;51.094;6.996;2023-10-31T12:34:11;13.80;99.90
46976;DHT22;32724;51.094;6.996;2023-10-31T12:36:37;13.90;99.90
46976;DHT22;32724;51.094;6.996;2023-10-31T12:39:04;13.90;99.90
46976;DHT22;32724;51.094;6.996;2023-10-31T12:41:32;13.90;99.90
46976;DHT22;32724;51.094;6.996;2023-10-31T12:43:58;13.20;99.90
46976;DHT22;32724;51.094;6.996;2023-10-31T12:46:25;13.30;99.90
46976;DHT22;32724;51.094;6.996;2023-10-31T12:48:51;13.00;99.90
46976;DHT22;32724;51.094;6.996;2023-10-31T12:51:17;13.00;99.90
46976;DHT22;32724;51.094;6.996;2023-10-31T12:53:48;13.30;99.90
46976;DHT22;32724;51.094;6.996;2023-10-31T12:56:37;13.60;99.90
46976;DHT22;32724;51.094;6.996;2023-10-31T12:59:05;13.90;99.90
46976;DHT22;32724;51.094;6.996;2023-10-31T13:01:33;14.00;99.90
46976;DHT22;32724;51.094;6.996;2023-10-31T13:04:00;14.20;99.90
46976;DHT22;32724;51.094;6.996;2023-10-31T13:06:25;14.30;99.90
46976;DHT22;32724;51.094;6.996;2023-10-31T13:08:51;14.40;99.90
46976;DHT22;32724;51.094;6.996;2023-10-31T13:11:16;14.50;99.90
46976;DHT22;32724;51.094;6.996;2023-10-31T13:13:42;14.50;99.90
46976;DHT22;32724;51.094;6.996;2023-10-31T13:16:08;14.50;99.90
46976;DHT22;32724;51.094;6.996;2023-10-31T13:18:35;14.60;99.90
46976;DHT22;32724;51.094;6.996;2023-10-31T13:21:01;14.80;99.90
46976;DHT22;32724;51.094;6.996;2023-10-31T13:23:26;15.00;99.90
46976;DHT22;32724;51.094;6.996;2023-10-31T13:25:52;15.10;99.90
46976;DHT22;32724;51.094;6.996;2023-10-31T13:28:17;15.30;99.90
46976;DHT22;32724;51.094;6.996;2023-10-31T13:30:42;15.40;99.90
46976;DHT22;32724;51.094;6.996;2023-10-31T13:33:08;15.40;99.90
46976;DHT22;32724;51.094;6.996;2023-10-31T13:35:34;15.50;99.90
46976;DHT22;32724;51.094;6.996;2023-10-31T13:38:01;15.60;99.90
46976;DHT22;32724;51.094;6.996;2023-10-31T13:40:26;15.40;99.90
46976;DHT22;32724;51.094;6.996;2023-10-31T13:42:52;15.40;99.90
46976;DHT22;32724;51.094;6.996;2023-10-31T13:45:18;15.20;99.90
46976;DHT22;32724;51.094;6.996;2023-10-31T13:47:44;15.10;99.90
46976;DHT22;32724;51.094;6.996;2023-10-31T13:50:09;15.00;99.90
46976;DHT22;32724;51.094;6.996;2023-10-31T13:52:35;14.80;99.90
46976;DHT22;32724;51.094;6.996;2023-10-31T13:55:01;14.90;99.90
46976;DHT22;32724;51.094;6.996;2023-10-31T13:57:26;15.00;99.90
46976;DHT22;32724;51.094;6.996;2023-10-31T13:59:52;15.10;99.90
46976;DHT22;32724;51.094;6.996;2023-10-31T14:02:19;15.20;99.90
46976;DHT22;32724;51.094;6.996;2023-10-31T14:04:44;15.20;99.90
46976;DHT22;32724;51.094;6.996;2023-10-31T14:07:13;15.20;99.90
46976;DHT22;32724;51.094;6.996;2023-10-31T14:09:43;15.10;99.90
46976;DHT22;32724;51.094;6.996;2023-10-31T14:12:08;15.10;99.90
46976;DHT22;32724;51.094;6.996;2023-10-31T14:14:34;14.90;99.90
46976;DHT22;32724;51.094;6.996;2023-10-31T14:16:59;14.80;99.90
46976;DHT22;32724;51.094;6.996;2023-10-31T14:19:25;14.70;99.90
46976;DHT22;32724;51.094;6.996;2023-10-31T14:21:50;14.50;99.90
46976;DHT22;32724;51.094;6.996;2023-10-31T14:24:17;14.40;99.90
46976;DHT22;32724;51.094;6.996;2023-10-31T14:26:43;14.30;99.90
46976;DHT22;32724;51.094;6.996;2023-10-31T14:29:08;14.20;99.90
46976;DHT22;32724;51.094;6.996;2023-10-31T14:31:41;14.20;99.90
46976;DHT22;32724;51.094;6.996;2023-10-31T14:34:06;14.10;99.90
46976;DHT22;32724;51.094;6.996;2023-10-31T14:36:32;14.00;99.90
46976;DHT22;32724;51.094;6.996;2023-10-31T14:38:58;14.00;99.90
46976;DHT22;32724;51.094;6.996;2023-10-31T14:41:23;14.00;99.90
46976;DHT22;32724;51.094;6.996;2023-10-31T14:43:50;13.90;99.90
46976;DHT22;32724;51.094;6.996;2023-10-31T14:46:15;13.90;99.90
46976;DHT22;32724;51.094;6.996;2023-10-31T14:48:41;13.80;99.90
46976;DHT22;32724;51.094;6.996;2023-10-31T14:51:06;13.80;99.90
46976;DHT22;32724;51.094;6.996;2023-10-31T14:53:32;13.80;99.90
46976;DHT22;32724;51.094;6.996;2023-10-31T14:55:57;13.70;99.90
46976;DHT22;32724;51.094;6.996;2023-10-31T14:58:23;13.70;99.90
46976;DHT22;32724;51.094;6.996;2023-10-31T15:00:49;13.60;99.90
46976;DHT22;32724;51.094;6.996;2023-10-31T15:03:16;13.50;99.90
46976;DHT22;32724;51.094;6.996;2023-10-31T15:05:42;13.40;99.90
46976;DHT22;32724;51.094;6.996;2023-10-31T15:08:08;13.40;99.90
46976;DHT22;32724;51.094;6.996;2023-10-31T15:10:33;13.30;99.90
46976;DHT22;32724;51.094;6.996;2023-10-31T15:12:59;13.30;99.90
46976;DHT22;32724;51.094;6.996;2023-10-31T15:15:25;13.30;99.90
46976;DHT22;32724;51.094;6.996;2023-10-31T15:17:50;13.10;99.90
46976;DHT22;32724;51.094;6.996;2023-10-31T15:20:19;13.00;99.90
46976;DHT22;32724;51.094;6.996;2023-10-31T15:22:44;13.00;99.90
46976;DHT22;32724;51.094;6.996;2023-10-31T15:25:10;13.00;99.90
46976;DHT22;32724;51.094;6.996;2023-10-31T15:27:36;12.90;99.90